sensor_id;sensor_type;location;lat;lon;timestamp;pressure;altitude;pressure_sealevel;temperature;humidity
68075;BME280;54864;52.002;5.468;2023-04-10T00:00:01;101978.59;;;11.18;59.20
68075;BME280;54864;52.002;5.468;2023-04-10T00:01:04;101981.16;;;11.21;59.58
68075;BME280;54864;52.002;5.468;2023-04-10T00:02:05;101975.88;;;11.21;59.26
68075;BME280;54864;52.002;5.468;2023-04-10T00:03:06;101971.44;;;11.21;59.54
68075;BME280;54864;52.002;5.468;2023-04-10T00:04:09;101966.94;;;11.25;59.33
68075;BME280;54864;52.002;5.468;2023-04-10T00:05:10;101966.31;;;11.17;59.79
68075;BME280;54864;52.002;5.468;2023-04-10T00:06:12;101953.97;;;11.17;59.50
68075;BME280;54864;52.002;5.468;2023-04-10T00:07:19;101953.03;;;11.20;60.13
68075;BME280;54864;52.002;5.468;2023-04-10T00:08:20;101954.16;;;11.11;59.30
68075;BME280;54864;52.002;5.468;2023-04-10T00:09:22;101950.84;;;11.03;59.84
68075;BME280;54864;52.002;5.468;2023-04-10T00:10:23;101946.25;;;11.11;59.00
68075;BME280;54864;52.002;5.468;2023-04-10T00:11:26;101940.16;;;11.09;58.91
68075;BME280;54864;52.002;5.468;2023-04-10T00:12:27;101935.19;;;10.97;59.17
68075;BME280;54864;52.002;5.468;2023-04-10T00:13:29;101935.06;;;11.01;59.72
68075;BME280;54864;52.002;5.468;2023-04-10T00:14:33;101935.88;;;11.03;58.61
68075;BME280;54864;52.002;5.468;2023-04-10T00:15:35;101940.28;;;11.03;58.87
68075;BME280;54864;52.002;5.468;2023-04-10T00:16:38;101937.84;;;10.97;58.68
68075;BME280;54864;52.002;5.468;2023-04-10T00:17:40;101933.72;;;10.87;59.70
68075;BME280;54864;52.002;5.468;2023-04-10T00:18:42;101930.00;;;10.94;59.91
68075;BME280;54864;52.002;5.468;2023-04-10T00:19:46;101930.88;;;10.94;60.22
68075;BME280;54864;52.002;5.468;2023-04-10T00:20:46;101940.69;;;10.89;59.71
68075;BME280;54864;52.002;5.468;2023-04-10T00:21:48;101934.56;;;10.89;60.09
68075;BME280;54864;52.002;5.468;2023-04-10T00:22:49;101935.50;;;10.86;59.92
68075;BME280;54864;52.002;5.468;2023-04-10T00:23:51;101938.09;;;10.88;60.81
68075;BME280;54864;52.002;5.468;2023-04-10T00:24:51;101932.13;;;10.81;59.98
68075;BME280;54864;52.002;5.468;2023-04-10T00:25:53;101930.31;;;10.83;59.52
68075;BME280;54864;52.002;5.468;2023-04-10T00:26:54;101934.69;;;10.84;59.16
68075;BME280;54864;52.002;5.468;2023-04-10T00:27:56;101926.94;;;10.78;59.07
68075;BME280;54864;52.002;5.468;2023-04-10T00:28:57;101923.34;;;10.80;59.45
68075;BME280;54864;52.002;5.468;2023-04-10T00:30:02;101930.56;;;10.74;59.50
68075;BME280;54864;52.002;5.468;2023-04-10T00:31:03;101919.38;;;10.66;59.15
68075;BME280;54864;52.002;5.468;2023-04-10T00:32:05;101920.75;;;10.79;59.28
68075;BME280;54864;52.002;5.468;2023-04-10T00:33:06;101915.25;;;10.87;59.04
68075;BME280;54864;52.002;5.468;2023-04-10T00:34:10;101916.91;;;10.91;59.44
68075;BME280;54864;52.002;5.468;2023-04-10T00:35:12;101916.09;;;10.89;59.39
68075;BME280;54864;52.002;5.468;2023-04-10T00:36:14;101914.19;;;10.94;59.93
68075;BME280;54864;52.002;5.468;2023-04-10T00:37:15;101914.13;;;10.95;59.92
68075;BME280;54864;52.002;5.468;2023-04-10T00:38:18;101894.94;;;10.90;59.78
68075;BME280;54864;52.002;5.468;2023-04-10T00:39:21;101906.41;;;10.89;59.29
68075;BME280;54864;52.002;5.468;2023-04-10T00:40:23;101904.56;;;10.91;59.06
68075;BME280;54864;52.002;5.468;2023-04-10T00:41:25;101899.72;;;10.77;59.48
68075;BME280;54864;52.002;5.468;2023-04-10T00:42:26;101899.66;;;10.79;59.36
68075;BME280;54864;52.002;5.468;2023-04-10T00:43:28;101899.38;;;10.88;59.42
68075;BME280;54864;52.002;5.468;2023-04-10T00:44:29;101896.84;;;10.85;59.08
68075;BME280;54864;52.002;5.468;2023-04-10T00:45:31;101896.75;;;10.88;59.03
68075;BME280;54864;52.002;5.468;2023-04-10T00:46:36;101893.88;;;10.96;59.72
68075;BME280;54864;52.002;5.468;2023-04-10T00:47:38;101898.28;;;10.95;59.79
68075;BME280;54864;52.002;5.468;2023-04-10T00:48:40;101896.66;;;10.91;60.31
68075;BME280;54864;52.002;5.468;2023-04-10T00:49:42;101893.28;;;10.86;58.87
68075;BME280;54864;52.002;5.468;2023-04-10T00:50:46;101893.25;;;10.88;59.43
68075;BME280;54864;52.002;5.468;2023-04-10T00:51:48;101892.19;;;10.93;59.74
68075;BME280;54864;52.002;5.468;2023-04-10T00:52:49;101885.00;;;10.98;59.81
68075;BME280;54864;52.002;5.468;2023-04-10T00:53:52;101893.84;;;10.97;60.04
68075;BME280;54864;52.002;5.468;2023-04-10T00:54:54;101896.56;;;10.94;59.75
68075;BME280;54864;52.002;5.468;2023-04-10T00:55:56;101899.22;;;10.94;59.52
68075;BME280;54864;52.002;5.468;2023-04-10T00:57:02;101897.63;;;10.89;59.97
68075;BME280;54864;52.002;5.468;2023-04-10T00:58:05;101893.97;;;10.93;59.95
68075;BME280;54864;52.002;5.468;2023-04-10T00:59:07;101893.88;;;10.96;60.24
68075;BME280;54864;52.002;5.468;2023-04-10T01:00:08;101888.53;;;10.99;60.17
68075;BME280;54864;52.002;5.468;2023-04-10T01:01:10;101889.53;;;10.95;59.94
68075;BME280;54864;52.002;5.468;2023-04-10T01:02:14;101881.47;;;10.99;59.80
68075;BME280;54864;52.002;5.468;2023-04-10T01:03:19;101878.06;;;10.96;60.09
68075;BME280;54864;52.002;5.468;2023-04-10T01:04:21;101877.19;;;10.95;60.14
68075;BME280;54864;52.002;5.468;2023-04-10T01:05:27;101878.97;;;10.95;60.14
68075;BME280;54864;52.002;5.468;2023-04-10T01:06:41;101882.66;;;10.89;60.51
68075;BME280;54864;52.002;5.468;2023-04-10T01:07:59;101884.50;;;10.86;60.71
68075;BME280;54864;52.002;5.468;2023-04-10T01:09:10;101880.38;;;10.77;60.22
68075;BME280;54864;52.002;5.468;2023-04-10T01:10:17;101876.88;;;10.76;60.42
68075;BME280;54864;52.002;5.468;2023-04-10T01:11:28;101875.09;;;10.77;60.46
68075;BME280;54864;52.002;5.468;2023-04-10T01:12:44;101875.06;;;10.78;60.73
68075;BME280;54864;52.002;5.468;2023-04-10T01:13:52;101868.09;;;10.76;61.20
68075;BME280;54864;52.002;5.468;2023-04-10T01:15:00;101870.97;;;10.68;61.48
68075;BME280;54864;52.002;5.468;2023-04-10T01:16:06;101877.06;;;10.70;61.73
68075;BME280;54864;52.002;5.468;2023-04-10T01:17:14;101870.34;;;10.59;62.61
68075;BME280;54864;52.002;5.468;2023-04-10T01:18:23;101871.91;;;10.66;61.56
68075;BME280;54864;52.002;5.468;2023-04-10T01:19:41;101870.09;;;10.68;61.27
68075;BME280;54864;52.002;5.468;2023-04-10T01:20:48;101876.28;;;10.67;61.59
68075;BME280;54864;52.002;5.468;2023-04-10T01:21:54;101873.72;;;10.64;61.81
68075;BME280;54864;52.002;5.468;2023-04-10T01:23:24;101862.41;;;10.60;61.93
68075;BME280;54864;52.002;5.468;2023-04-10T01:24:49;101867.03;;;10.52;62.14
68075;BME280;54864;52.002;5.468;2023-04-10T01:25:58;101867.13;;;10.49;62.45
68075;BME280;54864;52.002;5.468;2023-04-10T01:27:09;101863.88;;;10.38;61.50
68075;BME280;54864;52.002;5.468;2023-04-10T01:28:37;101864.75;;;10.38;62.02
68075;BME280;54864;52.002;5.468;2023-04-10T01:29:45;101858.63;;;10.38;62.27
68075;BME280;54864;52.002;5.468;2023-04-10T01:30:50;101860.44;;;10.36;61.04
68075;BME280;54864;52.002;5.468;2023-04-10T01:31:57;101862.28;;;10.32;62.21
68075;BME280;54864;52.002;5.468;2023-04-10T01:33:00;101860.38;;;10.37;61.37
68075;BME280;54864;52.002;5.468;2023-04-10T01:34:06;101861.44;;;10.32;62.32
68075;BME280;54864;52.002;5.468;2023-04-10T01:35:09;101859.47;;;10.38;62.26
68075;BME280;54864;52.002;5.468;2023-04-10T01:36:12;101858.56;;;10.39;62.17
68075;BME280;54864;52.002;5.468;2023-04-10T01:37:21;101860.13;;;10.48;61.83
68075;BME280;54864;52.002;5.468;2023-04-10T01:38:27;101859.25;;;10.47;62.12
68075;BME280;54864;52.002;5.468;2023-04-10T01:39:29;101855.84;;;10.44;61.83
68075;BME280;54864;52.002;5.468;2023-04-10T01:40:35;101855.72;;;10.48;62.73
68075;BME280;54864;52.002;5.468;2023-04-10T01:41:40;101859.16;;;10.51;62.29
68075;BME280;54864;52.002;5.468;2023-04-10T01:42:49;101848.63;;;10.51;62.22
68075;BME280;54864;52.002;5.468;2023-04-10T01:43:54;101852.34;;;10.43;61.87
68075;BME280;54864;52.002;5.468;2023-04-10T01:44:57;101846.94;;;10.48;61.41
68075;BME280;54864;52.002;5.468;2023-04-10T01:46:02;101846.91;;;10.50;61.36
68075;BME280;54864;52.002;5.468;2023-04-10T01:47:06;101850.34;;;10.52;61.41
68075;BME280;54864;52.002;5.468;2023-04-10T01:48:07;101856.31;;;10.58;61.30
68075;BME280;54864;52.002;5.468;2023-04-10T01:49:09;101846.63;;;10.59;61.61
68075;BME280;54864;52.002;5.468;2023-04-10T01:50:11;101850.22;;;10.56;61.63
68075;BME280;54864;52.002;5.468;2023-04-10T01:51:14;101843.09;;;10.60;61.67
68075;BME280;54864;52.002;5.468;2023-04-10T01:52:16;101842.91;;;10.66;61.19
68075;BME280;54864;52.002;5.468;2023-04-10T01:53:20;101837.63;;;10.66;61.62
68075;BME280;54864;52.002;5.468;2023-04-10T01:54:22;101842.94;;;10.64;61.19
68075;BME280;54864;52.002;5.468;2023-04-10T01:55:25;101846.59;;;10.60;61.05
68075;BME280;54864;52.002;5.468;2023-04-10T01:56:27;101845.63;;;10.63;61.33
68075;BME280;54864;52.002;5.468;2023-04-10T01:57:29;101853.44;;;10.66;61.17
68075;BME280;54864;52.002;5.468;2023-04-10T01:58:34;101843.13;;;10.58;61.73
68075;BME280;54864;52.002;5.468;2023-04-10T01:59:38;101845.84;;;10.55;60.75
68075;BME280;54864;52.002;5.468;2023-04-10T02:00:42;101848.50;;;10.55;61.62
68075;BME280;54864;52.002;5.468;2023-04-10T02:01:44;101840.63;;;10.54;61.35
68075;BME280;54864;52.002;5.468;2023-04-10T02:02:47;101844.16;;;10.53;61.54
68075;BME280;54864;52.002;5.468;2023-04-10T02:03:50;101843.03;;;10.61;61.67
68075;BME280;54864;52.002;5.468;2023-04-10T02:04:50;101840.31;;;10.64;61.75
68075;BME280;54864;52.002;5.468;2023-04-10T02:05:59;101835.91;;;10.65;61.09
68075;BME280;54864;52.002;5.468;2023-04-10T02:07:03;101833.22;;;10.66;61.44
68075;BME280;54864;52.002;5.468;2023-04-10T02:08:12;101829.56;;;10.70;61.52
68075;BME280;54864;52.002;5.468;2023-04-10T02:09:19;101830.34;;;10.74;61.01
68075;BME280;54864;52.002;5.468;2023-04-10T02:10:26;101835.63;;;10.74;61.04
68075;BME280;54864;52.002;5.468;2023-04-10T02:11:35;101827.91;;;10.68;61.52
68075;BME280;54864;52.002;5.468;2023-04-10T02:12:43;101830.44;;;10.71;61.70
68075;BME280;54864;52.002;5.468;2023-04-10T02:13:47;101832.22;;;10.70;62.02
68075;BME280;54864;52.002;5.468;2023-04-10T02:14:53;101825.97;;;10.73;61.56
68075;BME280;54864;52.002;5.468;2023-04-10T02:15:57;101837.44;;;10.72;61.41
68075;BME280;54864;52.002;5.468;2023-04-10T02:17:00;101832.09;;;10.75;61.38
68075;BME280;54864;52.002;5.468;2023-04-10T02:18:02;101830.44;;;10.71;60.99
68075;BME280;54864;52.002;5.468;2023-04-10T02:19:06;101834.00;;;10.70;61.33
68075;BME280;54864;52.002;5.468;2023-04-10T02:20:09;101828.75;;;10.68;61.39
68075;BME280;54864;52.002;5.468;2023-04-10T02:21:11;101823.47;;;10.68;61.87
68075;BME280;54864;52.002;5.468;2023-04-10T02:22:12;101827.13;;;10.64;61.62
68075;BME280;54864;52.002;5.468;2023-04-10T02:23:19;101831.72;;;10.58;61.95
68075;BME280;54864;52.002;5.468;2023-04-10T02:24:21;101828.91;;;10.64;61.77
68075;BME280;54864;52.002;5.468;2023-04-10T02:25:23;101827.13;;;10.64;61.49
68075;BME280;54864;52.002;5.468;2023-04-10T02:26:24;101833.31;;;10.63;62.06
68075;BME280;54864;52.002;5.468;2023-04-10T02:27:27;101819.25;;;10.63;61.95
68075;BME280;54864;52.002;5.468;2023-04-10T02:28:28;101821.03;;;10.62;62.34
68075;BME280;54864;52.002;5.468;2023-04-10T02:29:30;101830.84;;;10.57;61.93
68075;BME280;54864;52.002;5.468;2023-04-10T02:30:32;101818.41;;;10.62;62.14
68075;BME280;54864;52.002;5.468;2023-04-10T02:31:34;101817.44;;;10.65;62.41
68075;BME280;54864;52.002;5.468;2023-04-10T02:32:35;101817.50;;;10.63;61.80
68075;BME280;54864;52.002;5.468;2023-04-10T02:33:37;101825.41;;;10.63;62.01
68075;BME280;54864;52.002;5.468;2023-04-10T02:34:38;101822.84;;;10.60;62.00
68075;BME280;54864;52.002;5.468;2023-04-10T02:35:39;101820.22;;;10.60;62.34
68075;BME280;54864;52.002;5.468;2023-04-10T02:36:43;101824.84;;;10.52;62.19
68075;BME280;54864;52.002;5.468;2023-04-10T02:37:45;101820.63;;;10.46;61.61
68075;BME280;54864;52.002;5.468;2023-04-10T02:38:50;101821.53;;;10.45;60.97
68075;BME280;54864;52.002;5.468;2023-04-10T02:39:52;101824.91;;;10.51;61.62
68075;BME280;54864;52.002;5.468;2023-04-10T02:40:54;101823.97;;;10.52;61.98
68075;BME280;54864;52.002;5.468;2023-04-10T02:41:55;101818.63;;;10.55;61.94
68075;BME280;54864;52.002;5.468;2023-04-10T02:42:56;101819.47;;;10.55;62.33
68075;BME280;54864;52.002;5.468;2023-04-10T02:43:58;101820.53;;;10.50;62.01
68075;BME280;54864;52.002;5.468;2023-04-10T02:44:59;101821.31;;;10.53;61.88
68075;BME280;54864;52.002;5.468;2023-04-10T02:46:02;101817.81;;;10.53;61.99
68075;BME280;54864;52.002;5.468;2023-04-10T02:47:02;101819.56;;;10.52;62.51
68075;BME280;54864;52.002;5.468;2023-04-10T02:48:05;101820.44;;;10.53;62.05
68075;BME280;54864;52.002;5.468;2023-04-10T02:49:06;101826.72;;;10.48;62.07
68075;BME280;54864;52.002;5.468;2023-04-10T02:50:09;101823.28;;;10.45;62.78
68075;BME280;54864;52.002;5.468;2023-04-10T02:51:15;101813.66;;;10.44;61.75
68075;BME280;54864;52.002;5.468;2023-04-10T02:52:17;101816.44;;;10.38;62.11
68075;BME280;54864;52.002;5.468;2023-04-10T02:53:18;101823.47;;;10.37;62.03
68075;BME280;54864;52.002;5.468;2023-04-10T02:54:22;101816.75;;;10.27;62.33
68075;BME280;54864;52.002;5.468;2023-04-10T02:55:23;101822.63;;;10.37;62.00
68075;BME280;54864;52.002;5.468;2023-04-10T02:56:25;101827.81;;;10.40;62.29
68075;BME280;54864;52.002;5.468;2023-04-10T02:57:26;101818.16;;;10.39;62.07
68075;BME280;54864;52.002;5.468;2023-04-10T02:58:29;101826.03;;;10.42;62.28
68075;BME280;54864;52.002;5.468;2023-04-10T02:59:29;101824.34;;;10.38;62.39
68075;BME280;54864;52.002;5.468;2023-04-10T03:00:57;101826.94;;;10.41;62.57
68075;BME280;54864;52.002;5.468;2023-04-10T03:03:44;101823.53;;;10.36;62.73
68075;BME280;54864;52.002;5.468;2023-04-10T03:05:00;101824.59;;;10.29;63.47
68075;BME280;54864;52.002;5.468;2023-04-10T03:06:05;101823.66;;;10.31;63.74
68075;BME280;54864;52.002;5.468;2023-04-10T03:07:19;101822.97;;;10.25;63.19
68075;BME280;54864;52.002;5.468;2023-04-10T03:08:23;101826.47;;;10.25;63.19
68075;BME280;54864;52.002;5.468;2023-04-10T03:09:30;101832.56;;;10.27;63.48
68075;BME280;54864;52.002;5.468;2023-04-10T03:10:31;101822.88;;;10.28;63.60
68075;BME280;54864;52.002;5.468;2023-04-10T03:11:33;101827.34;;;10.26;64.19
68075;BME280;54864;52.002;5.468;2023-04-10T03:12:33;101829.09;;;10.25;63.95
68075;BME280;54864;52.002;5.468;2023-04-10T03:13:39;101834.41;;;10.24;64.19
68075;BME280;54864;52.002;5.468;2023-04-10T03:14:40;101827.38;;;10.24;64.64
68075;BME280;54864;52.002;5.468;2023-04-10T03:15:42;101833.41;;;10.28;64.21
68075;BME280;54864;52.002;5.468;2023-04-10T03:16:43;101825.69;;;10.22;63.92
68075;BME280;54864;52.002;5.468;2023-04-10T03:17:48;101826.66;;;10.17;63.57
68075;BME280;54864;52.002;5.468;2023-04-10T03:18:51;101828.50;;;10.14;63.46
68075;BME280;54864;52.002;5.468;2023-04-10T03:19:53;101829.56;;;10.07;63.76
68075;BME280;54864;52.002;5.468;2023-04-10T03:20:53;101821.75;;;10.04;64.50
68075;BME280;54864;52.002;5.468;2023-04-10T03:21:55;101821.72;;;10.05;63.97
68075;BME280;54864;52.002;5.468;2023-04-10T03:22:56;101821.63;;;10.08;64.55
68075;BME280;54864;52.002;5.468;2023-04-10T03:24:01;101824.25;;;10.08;63.96
68075;BME280;54864;52.002;5.468;2023-04-10T03:25:02;101823.47;;;10.05;64.47
68075;BME280;54864;52.002;5.468;2023-04-10T03:26:06;101831.31;;;10.08;64.75
68075;BME280;54864;52.002;5.468;2023-04-10T03:27:10;101825.25;;;10.04;64.78
68075;BME280;54864;52.002;5.468;2023-04-10T03:28:12;101822.13;;;9.90;64.78
68075;BME280;54864;52.002;5.468;2023-04-10T03:29:12;101819.41;;;9.93;65.16
68075;BME280;54864;52.002;5.468;2023-04-10T03:30:18;101820.56;;;9.83;65.17
68075;BME280;54864;52.002;5.468;2023-04-10T03:31:19;101822.13;;;9.90;65.20
68075;BME280;54864;52.002;5.468;2023-04-10T03:32:20;101815.97;;;9.91;65.05
68075;BME280;54864;52.002;5.468;2023-04-10T03:33:23;101816.84;;;9.90;64.79
68075;BME280;54864;52.002;5.468;2023-04-10T03:34:45;101815.09;;;9.91;64.46
68075;BME280;54864;52.002;5.468;2023-04-10T03:35:46;101822.34;;;9.82;64.96
68075;BME280;54864;52.002;5.468;2023-04-10T03:36:50;101818.66;;;9.88;65.19
68075;BME280;54864;52.002;5.468;2023-04-10T03:37:52;101810.84;;;9.85;65.38
68075;BME280;54864;52.002;5.468;2023-04-10T03:38:55;101807.31;;;9.86;64.57
68075;BME280;54864;52.002;5.468;2023-04-10T03:39:57;101815.38;;;9.80;64.33
68075;BME280;54864;52.002;5.468;2023-04-10T03:40:58;101814.34;;;9.85;65.31
68075;BME280;54864;52.002;5.468;2023-04-10T03:42:00;101814.25;;;9.89;65.14
68075;BME280;54864;52.002;5.468;2023-04-10T03:43:01;101814.22;;;9.90;64.51
68075;BME280;54864;52.002;5.468;2023-04-10T03:44:03;101803.72;;;9.89;64.70
68075;BME280;54864;52.002;5.468;2023-04-10T03:45:06;101811.72;;;9.85;64.64
68075;BME280;54864;52.002;5.468;2023-04-10T03:46:08;101804.88;;;9.78;64.31
68075;BME280;54864;52.002;5.468;2023-04-10T03:47:09;101804.75;;;9.83;64.67
68075;BME280;54864;52.002;5.468;2023-04-10T03:48:13;101804.81;;;9.81;64.65
68075;BME280;54864;52.002;5.468;2023-04-10T03:49:17;101795.94;;;9.84;63.89
68075;BME280;54864;52.002;5.468;2023-04-10T03:50:19;101800.41;;;9.82;64.38
68075;BME280;54864;52.002;5.468;2023-04-10T03:51:20;101797.69;;;9.85;64.18
68075;BME280;54864;52.002;5.468;2023-04-10T03:52:23;101802.13;;;9.83;64.68
68075;BME280;54864;52.002;5.468;2023-04-10T03:53:24;101797.97;;;9.73;64.32
68075;BME280;54864;52.002;5.468;2023-04-10T03:54:26;101796.16;;;9.76;64.43
68075;BME280;54864;52.002;5.468;2023-04-10T03:55:27;101802.13;;;9.83;64.38
68075;BME280;54864;52.002;5.468;2023-04-10T03:56:28;101801.38;;;9.78;64.47
68075;BME280;54864;52.002;5.468;2023-04-10T03:57:31;101799.41;;;9.86;64.82
68075;BME280;54864;52.002;5.468;2023-04-10T03:58:33;101794.09;;;9.88;64.33
68075;BME280;54864;52.002;5.468;2023-04-10T03:59:34;101795.91;;;9.85;64.59
68075;BME280;54864;52.002;5.468;2023-04-10T04:00:36;101790.53;;;9.90;64.71
68075;BME280;54864;52.002;5.468;2023-04-10T04:01:37;101791.50;;;9.86;64.57
68075;BME280;54864;52.002;5.468;2023-04-10T04:02:38;101797.56;;;9.90;64.52
68075;BME280;54864;52.002;5.468;2023-04-10T04:03:39;101798.59;;;9.84;64.13
68075;BME280;54864;52.002;5.468;2023-04-10T04:04:42;101799.44;;;9.84;64.88
68075;BME280;54864;52.002;5.468;2023-04-10T04:05:43;101787.09;;;9.87;64.78
68075;BME280;54864;52.002;5.468;2023-04-10T04:06:45;101791.56;;;9.84;64.92
68075;BME280;54864;52.002;5.468;2023-04-10T04:07:46;101789.78;;;9.85;64.79
68075;BME280;54864;52.002;5.468;2023-04-10T04:08:48;101787.19;;;9.83;64.60
68075;BME280;54864;52.002;5.468;2023-04-10T04:09:49;101779.25;;;9.85;64.56
68075;BME280;54864;52.002;5.468;2023-04-10T04:10:51;101784.50;;;9.85;64.55
68075;BME280;54864;52.002;5.468;2023-04-10T04:11:51;101780.16;;;9.84;64.91
68075;BME280;54864;52.002;5.468;2023-04-10T04:12:53;101782.91;;;9.79;65.05
68075;BME280;54864;52.002;5.468;2023-04-10T04:13:55;101776.84;;;9.76;64.14
68075;BME280;54864;52.002;5.468;2023-04-10T04:14:56;101776.00;;;9.74;64.05
68075;BME280;54864;52.002;5.468;2023-04-10T04:15:59;101777.91;;;9.69;63.71
68075;BME280;54864;52.002;5.468;2023-04-10T04:17:10;101776.22;;;9.66;63.88
68075;BME280;54864;52.002;5.468;2023-04-10T04:18:11;101774.44;;;9.67;64.43
68075;BME280;54864;52.002;5.468;2023-04-10T04:19:12;101770.78;;;9.72;64.20
68075;BME280;54864;52.002;5.468;2023-04-10T04:20:17;101770.94;;;9.66;64.77
68075;BME280;54864;52.002;5.468;2023-04-10T04:21:19;101771.63;;;9.73;64.62
68075;BME280;54864;52.002;5.468;2023-04-10T04:22:20;101774.34;;;9.70;64.74
68075;BME280;54864;52.002;5.468;2023-04-10T04:23:22;101767.41;;;9.67;64.29
68075;BME280;54864;52.002;5.468;2023-04-10T04:24:23;101770.00;;;9.69;64.47
68075;BME280;54864;52.002;5.468;2023-04-10T04:25:25;101766.47;;;9.70;64.33
68075;BME280;54864;52.002;5.468;2023-04-10T04:26:26;101770.00;;;9.69;65.21
68075;BME280;54864;52.002;5.468;2023-04-10T04:27:28;101770.91;;;9.68;63.56
68075;BME280;54864;52.002;5.468;2023-04-10T04:28:28;101771.13;;;9.59;64.68
68075;BME280;54864;52.002;5.468;2023-04-10T04:29:30;101779.94;;;9.58;64.67
68075;BME280;54864;52.002;5.468;2023-04-10T04:30:34;101770.31;;;9.57;64.36
68075;BME280;54864;52.002;5.468;2023-04-10T04:31:35;101775.75;;;9.50;64.67
68075;BME280;54864;52.002;5.468;2023-04-10T04:32:36;101771.31;;;9.52;64.56
68075;BME280;54864;52.002;5.468;2023-04-10T04:33:38;101771.19;;;9.57;64.50
68075;BME280;54864;52.002;5.468;2023-04-10T04:34:40;101774.47;;;9.65;64.25
68075;BME280;54864;52.002;5.468;2023-04-10T04:35:43;101779.78;;;9.64;64.49
68075;BME280;54864;52.002;5.468;2023-04-10T04:36:44;101771.72;;;9.70;64.38
68075;BME280;54864;52.002;5.468;2023-04-10T04:37:46;101769.88;;;9.73;64.08
68075;BME280;54864;52.002;5.468;2023-04-10T04:38:46;101769.16;;;9.67;64.29
68075;BME280;54864;52.002;5.468;2023-04-10T04:39:48;101769.13;;;9.68;64.19
68075;BME280;54864;52.002;5.468;2023-04-10T04:40:49;101769.13;;;9.68;64.02
68075;BME280;54864;52.002;5.468;2023-04-10T04:41:51;101770.00;;;9.69;63.56
68075;BME280;54864;52.002;5.468;2023-04-10T04:42:52;101762.09;;;9.69;64.39
68075;BME280;54864;52.002;5.468;2023-04-10T04:43:54;101764.78;;;9.67;64.04
68075;BME280;54864;52.002;5.468;2023-04-10T04:44:55;101758.75;;;9.62;63.44
68075;BME280;54864;52.002;5.468;2023-04-10T04:45:57;101757.94;;;9.60;63.45
68075;BME280;54864;52.002;5.468;2023-04-10T04:46:57;101764.03;;;9.62;64.48
68075;BME280;54864;52.002;5.468;2023-04-10T04:47:59;101756.00;;;9.67;64.75
68075;BME280;54864;52.002;5.468;2023-04-10T04:49:00;101754.28;;;9.66;64.70
68075;BME280;54864;52.002;5.468;2023-04-10T04:50:02;101759.41;;;9.70;64.68
68075;BME280;54864;52.002;5.468;2023-04-10T04:51:06;101752.38;;;9.71;63.56
68075;BME280;54864;52.002;5.468;2023-04-10T04:52:08;101754.19;;;9.69;64.24
68075;BME280;54864;52.002;5.468;2023-04-10T04:53:10;101756.81;;;9.69;63.82
68075;BME280;54864;52.002;5.468;2023-04-10T04:54:17;101755.94;;;9.70;64.03
68075;BME280;54864;52.002;5.468;2023-04-10T04:55:18;101755.09;;;9.68;64.26
68075;BME280;54864;52.002;5.468;2023-04-10T04:56:20;101747.97;;;9.71;64.04
68075;BME280;54864;52.002;5.468;2023-04-10T04:57:22;101750.88;;;9.62;63.65
68075;BME280;54864;52.002;5.468;2023-04-10T04:58:25;101747.41;;;9.60;64.11
68075;BME280;54864;52.002;5.468;2023-04-10T04:59:26;101751.00;;;9.58;63.22
68075;BME280;54864;52.002;5.468;2023-04-10T05:00:28;101742.25;;;9.56;63.31
68075;BME280;54864;52.002;5.468;2023-04-10T05:01:29;101746.53;;;9.60;63.53
68075;BME280;54864;52.002;5.468;2023-04-10T05:02:31;101750.91;;;9.61;64.12
68075;BME280;54864;52.002;5.468;2023-04-10T05:03:34;101751.78;;;9.61;64.55
68075;BME280;54864;52.002;5.468;2023-04-10T05:04:36;101752.59;;;9.63;64.48
68075;BME280;54864;52.002;5.468;2023-04-10T05:05:37;101745.59;;;9.62;64.00
68075;BME280;54864;52.002;5.468;2023-04-10T05:06:41;101753.50;;;9.62;63.72
68075;BME280;54864;52.002;5.468;2023-04-10T05:07:41;101754.53;;;9.57;63.76
68075;BME280;54864;52.002;5.468;2023-04-10T05:08:43;101755.59;;;9.49;63.94
68075;BME280;54864;52.002;5.468;2023-04-10T05:09:44;101751.97;;;9.53;63.52
68075;BME280;54864;52.002;5.468;2023-04-10T05:10:46;101736.88;;;9.60;63.38
68075;BME280;54864;52.002;5.468;2023-04-10T05:11:49;101755.25;;;9.62;63.59
68075;BME280;54864;52.002;5.468;2023-04-10T05:12:53;101750.69;;;9.68;63.25
68075;BME280;54864;52.002;5.468;2023-04-10T05:13:56;101741.91;;;9.69;63.29
68075;BME280;54864;52.002;5.468;2023-04-10T05:15:00;101745.31;;;9.73;62.78
68075;BME280;54864;52.002;5.468;2023-04-10T05:16:07;101747.03;;;9.75;62.91
68075;BME280;54864;52.002;5.468;2023-04-10T05:17:08;101746.94;;;9.78;62.79
68075;BME280;54864;52.002;5.468;2023-04-10T05:18:12;101746.91;;;9.80;63.37
68075;BME280;54864;52.002;5.468;2023-04-10T05:19:13;101736.41;;;9.78;63.56
68075;BME280;54864;52.002;5.468;2023-04-10T05:20:16;101738.00;;;9.84;63.68
68075;BME280;54864;52.002;5.468;2023-04-10T05:21:16;101730.31;;;9.76;63.82
68075;BME280;54864;52.002;5.468;2023-04-10T05:22:22;101732.16;;;9.73;62.96
68075;BME280;54864;52.002;5.468;2023-04-10T05:23:23;101738.22;;;9.75;62.78
68075;BME280;54864;52.002;5.468;2023-04-10T05:24:25;101734.75;;;9.74;62.26
68075;BME280;54864;52.002;5.468;2023-04-10T05:25:26;101736.38;;;9.80;63.10
68075;BME280;54864;52.002;5.468;2023-04-10T05:26:28;101737.09;;;9.85;63.12
68075;BME280;54864;52.002;5.468;2023-04-10T05:27:29;101732.69;;;9.85;62.82
68075;BME280;54864;52.002;5.468;2023-04-10T05:28:30;101740.53;;;9.89;62.68
68075;BME280;54864;52.002;5.468;2023-04-10T05:29:35;101737.94;;;9.87;62.28
68075;BME280;54864;52.002;5.468;2023-04-10T05:30:37;101746.00;;;9.81;63.28
68075;BME280;54864;52.002;5.468;2023-04-10T05:31:38;101737.84;;;9.90;62.83
68075;BME280;54864;52.002;5.468;2023-04-10T05:32:40;101741.28;;;9.92;62.95
68075;BME280;54864;52.002;5.468;2023-04-10T05:33:41;101746.47;;;9.95;62.89
68075;BME280;54864;52.002;5.468;2023-04-10T05:34:43;101742.00;;;9.99;62.48